createdAt,value
2018-03-07T00:00:41.373Z,178.70
2018-03-07T00:01:41.401Z,203.60
2018-03-07T00:02:41.429Z,195.00
2018-03-07T00:03:41.457Z,204.20
2018-03-07T00:04:41.486Z,216.30
2018-03-07T00:05:41.515Z,251.90
2018-03-07T00:06:41.543Z,206.00
2018-03-07T00:07:41.573Z,246.10
2018-03-07T00:08:41.598Z,200.00
2018-03-07T00:09:41.627Z,193.30
2018-03-07T00:10:41.654Z,212.40
2018-03-07T00:11:41.682Z,206.60
2018-03-07T00:12:41.714Z,208.50
2018-03-07T00:13:41.739Z,176.40
2018-03-07T00:14:41.769Z,211.90
2018-03-07T00:15:41.795Z,239.60
2018-03-07T00:16:41.823Z,239.70
2018-03-07T00:17:41.852Z,237.10
2018-03-07T00:18:41.881Z,243.10
2018-03-07T00:19:41.908Z,197.00
2018-03-07T00:20:41.938Z,241.40
2018-03-07T00:21:41.967Z,159.70
2018-03-07T00:22:41.995Z,138.40
2018-03-07T00:23:42.045Z,177.50
2018-03-07T00:24:42.048Z,145.60
2018-03-07T00:25:42.079Z,179.00
2018-03-07T00:26:42.105Z,163.10
2018-03-07T00:27:42.132Z,204.00
2018-03-07T00:28:42.161Z,254.70
2018-03-07T00:29:42.190Z,256.20
2018-03-07T00:30:42.218Z,210.50
2018-03-07T00:31:42.246Z,262.30
2018-03-07T00:32:42.273Z,261.90
2018-03-07T00:33:42.303Z,249.50
2018-03-07T00:34:42.331Z,263.60
2018-03-07T00:35:42.358Z,235.60
2018-03-07T00:36:42.385Z,169.30
2018-03-07T00:37:42.417Z,219.80
2018-03-07T00:38:42.446Z,204.00
2018-03-07T00:39:42.469Z,222.40
2018-03-07T00:40:42.497Z,265.90
2018-03-07T00:41:42.529Z,229.60
2018-03-07T00:42:42.558Z,189.30
2018-03-07T00:43:42.582Z,186.80
2018-03-07T00:44:42.609Z,182.10
2018-03-07T00:45:42.639Z,188.80
2018-03-07T00:46:42.667Z,250.90
2018-03-07T00:47:42.694Z,199.60
2018-03-07T00:48:42.723Z,153.90
2018-03-07T00:49:42.753Z,208.70
2018-03-07T00:50:42.780Z,186.10
2018-03-07T00:51:42.805Z,176.70
2018-03-07T00:52:42.838Z,194.10
2018-03-07T00:53:42.865Z,225.40
2018-03-07T00:54:42.894Z,218.60
2018-03-07T00:55:42.918Z,225.20
2018-03-07T00:56:42.948Z,232.90
2018-03-07T00:57:42.977Z,220.70
2018-03-07T00:58:43.003Z,242.20
2018-03-07T00:59:43.028Z,233.80
2018-03-07T01:00:43.062Z,260.70
2018-03-07T01:01:43.085Z,239.20
2018-03-07T01:02:43.113Z,256.30
2018-03-07T01:03:43.140Z,313.20
2018-03-07T01:04:43.169Z,283.10
2018-03-07T01:05:43.199Z,244.00
2018-03-07T01:06:43.224Z,255.90
2018-03-07T01:07:43.251Z,232.60
2018-03-07T01:08:43.279Z,186.60
2018-03-07T01:09:43.309Z,217.50
2018-03-07T01:10:43.339Z,194.00
2018-03-07T01:11:43.364Z,263.90
2018-03-07T01:12:43.390Z,211.50
2018-03-07T01:13:43.419Z,215.80
2018-03-07T01:14:43.447Z,211.70
2018-03-07T01:15:43.476Z,216.30
2018-03-07T01:16:43.501Z,230.00
2018-03-07T01:17:43.529Z,328.40
2018-03-07T01:18:43.556Z,294.70
2018-03-07T01:19:43.583Z,220.00
2018-03-07T01:20:43.612Z,282.50
2018-03-07T01:21:43.639Z,259.30
2018-03-07T01:22:43.671Z,317.90
2018-03-07T01:23:43.694Z,283.90
2018-03-07T01:24:43.720Z,269.60
2018-03-07T01:25:43.748Z,271.60
2018-03-07T01:26:43.780Z,215.40
2018-03-07T01:27:43.805Z,171.00
2018-03-07T01:28:43.843Z,193.60
2018-03-07T01:29:43.858Z,200.40
2018-03-07T01:30:43.891Z,250.70
2018-03-07T01:31:43.917Z,232.60
2018-03-07T01:32:43.941Z,263.10
2018-03-07T01:33:43.968Z,292.30
2018-03-07T01:34:43.997Z,231.20
2018-03-07T01:35:44.027Z,208.80
2018-03-07T01:36:44.051Z,204.90
2018-03-07T01:37:44.078Z,242.40
2018-03-07T01:38:44.106Z,237.40
2018-03-07T01:39:44.133Z,305.70
2018-03-07T01:40:44.161Z,243.10
2018-03-07T01:41:44.188Z,230.40
2018-03-07T01:42:44.215Z,268.60
2018-03-07T01:43:44.243Z,169.80
2018-03-07T01:44:44.272Z,181.30
2018-03-07T01:45:44.298Z,171.40
2018-03-07T01:46:44.327Z,153.50
2018-03-07T01:47:44.355Z,141.90
2018-03-07T01:48:44.384Z,103.50
2018-03-07T01:49:44.407Z,108.60
2018-03-07T01:50:44.438Z,117.00
2018-03-07T01:51:44.466Z,145.20
2018-03-07T01:52:44.490Z,128.10
2018-03-07T01:53:44.519Z,102.70
2018-03-07T01:54:44.542Z,109.50
2018-03-07T01:55:44.570Z,91.20
2018-03-07T01:56:44.597Z,99.30
2018-03-07T01:57:44.627Z,113.10
2018-03-07T01:58:44.652Z,97.30
2018-03-07T01:59:44.683Z,78.70
2018-03-07T02:00:44.706Z,101.00
2018-03-07T02:01:44.732Z,158.20
2018-03-07T02:02:44.763Z,124.70
2018-03-07T02:03:44.788Z,120.40
2018-03-07T02:04:44.814Z,156.70
2018-03-07T02:05:44.841Z,119.50
2018-03-07T02:06:44.869Z,136.30
2018-03-07T02:07:44.896Z,136.00
2018-03-07T02:08:44.927Z,139.20
2018-03-07T02:09:44.950Z,131.90
2018-03-07T02:10:44.978Z,114.00
2018-03-07T02:11:45.005Z,86.20
2018-03-07T02:12:45.036Z,89.10
2018-03-07T02:13:45.060Z,86.80
2018-03-07T02:14:45.086Z,99.50
2018-03-07T02:15:45.113Z,138.40
2018-03-07T02:16:45.140Z,122.40
2018-03-07T02:17:45.170Z,135.50
2018-03-07T02:18:45.195Z,135.10
2018-03-07T02:19:45.221Z,106.90
2018-03-07T02:20:45.248Z,127.40
2018-03-07T02:21:45.276Z,91.40
2018-03-07T02:22:45.303Z,73.10
2018-03-07T02:23:45.332Z,60.10
2018-03-07T02:24:45.357Z,70.20
2018-03-07T02:25:45.387Z,55.20
2018-03-07T02:26:45.411Z,53.20
2018-03-07T02:27:45.438Z,70.30
2018-03-07T02:28:45.465Z,60.80
2018-03-07T02:29:45.493Z,77.90
2018-03-07T02:30:45.520Z,79.40
2018-03-07T02:31:45.551Z,77.00
2018-03-07T02:32:45.578Z,71.10
2018-03-07T02:33:45.601Z,53.20
2018-03-07T02:34:45.627Z,65.40
2018-03-07T02:35:45.657Z,71.70
2018-03-07T02:36:45.681Z,68.90
2018-03-07T02:37:45.708Z,67.30
2018-03-07T02:38:45.736Z,70.70
2018-03-07T02:39:45.762Z,75.40
2018-03-07T02:40:45.807Z,84.30
2018-03-07T02:41:45.817Z,63.90
2018-03-07T02:42:45.843Z,79.40
2018-03-07T02:43:45.870Z,76.90
2018-03-07T02:44:45.897Z,69.00
2018-03-07T02:45:45.931Z,74.40
2018-03-07T02:46:45.951Z,64.80
2018-03-07T02:47:45.981Z,55.60
2018-03-07T02:48:46.010Z,50.40
2018-03-07T02:49:46.033Z,43.70
2018-03-07T02:50:46.060Z,41.90
2018-03-07T02:51:46.087Z,39.70
2018-03-07T02:52:46.135Z,41.60
2018-03-07T02:53:46.141Z,39.50
2018-03-07T02:54:46.167Z,50.40
2018-03-07T02:55:46.194Z,47.30
2018-03-07T02:56:46.221Z,43.40
2018-03-07T02:57:46.248Z,46.40
2018-03-07T02:58:46.276Z,39.80
2018-03-07T02:59:46.305Z,44.60
2018-03-07T03:00:46.333Z,41.90
2018-03-07T03:01:46.355Z,43.20
2018-03-07T03:02:46.384Z,46.60
2018-03-07T03:03:46.412Z,44.70
2018-03-07T03:04:46.442Z,43.20
2018-03-07T03:05:46.467Z,44.80
2018-03-07T03:06:46.491Z,42.10
2018-03-07T03:07:46.520Z,37.10
2018-03-07T03:08:46.544Z,38.20
2018-03-07T03:09:46.574Z,33.90
2018-03-07T03:10:46.605Z,37.60
2018-03-07T03:11:46.624Z,31.50
2018-03-07T03:12:46.659Z,36.40
2018-03-07T03:13:46.688Z,32.20
2018-03-07T03:14:46.706Z,35.10
2018-03-07T03:15:46.732Z,33.50
2018-03-07T03:16:46.759Z,34.70
2018-03-07T03:17:46.785Z,36.10
2018-03-07T03:18:46.813Z,35.50
2018-03-07T03:19:46.840Z,34.60
2018-03-07T03:20:46.868Z,34.60
2018-03-07T03:21:46.896Z,37.90
2018-03-07T03:22:46.920Z,32.80
2018-03-07T03:23:46.947Z,33.70
2018-03-07T03:24:46.973Z,29.40
2018-03-07T03:25:47.001Z,30.00
2018-03-07T03:26:47.028Z,33.60
2018-03-07T03:27:47.055Z,30.80
2018-03-07T03:28:47.082Z,31.30
2018-03-07T03:29:47.109Z,30.00
2018-03-07T03:30:47.142Z,33.40
2018-03-07T03:31:47.162Z,30.80
2018-03-07T03:32:47.189Z,30.50
2018-03-07T03:33:47.216Z,32.20
2018-03-07T03:34:47.248Z,32.60
2018-03-07T03:35:47.270Z,32.10
2018-03-07T03:36:47.298Z,31.60
2018-03-07T03:37:47.325Z,31.80
2018-03-07T03:38:47.352Z,30.60
2018-03-07T03:39:47.378Z,33.00
2018-03-07T03:40:47.405Z,29.40
2018-03-07T03:41:47.432Z,27.70
2018-03-07T03:42:47.459Z,29.20
2018-03-07T03:43:47.487Z,30.40
2018-03-07T03:44:47.518Z,35.10
2018-03-07T03:45:47.542Z,30.60
2018-03-07T03:46:47.566Z,27.80
2018-03-07T03:47:47.593Z,37.80
2018-03-07T03:48:47.622Z,35.40
2018-03-07T03:49:56.868Z,31.60
2018-03-07T03:50:47.677Z,32.10
2018-03-07T03:51:47.701Z,27.70
2018-03-07T03:52:47.728Z,29.70
2018-03-07T03:53:47.756Z,28.10
2018-03-07T03:54:47.783Z,29.50
2018-03-07T03:55:47.809Z,28.40
2018-03-07T03:56:47.847Z,26.50
2018-03-07T03:57:47.865Z,25.60
2018-03-07T03:58:47.891Z,25.10
2018-03-07T03:59:47.919Z,22.90
2018-03-07T04:00:47.948Z,26.70
2018-03-07T04:01:47.972Z,28.30
2018-03-07T04:02:47.999Z,23.60
2018-03-07T04:03:48.027Z,23.20
2018-03-07T04:04:48.053Z,25.80
2018-03-07T04:05:48.080Z,22.80
2018-03-07T04:06:48.108Z,24.00
2018-03-07T04:07:48.134Z,24.60
2018-03-07T04:08:48.163Z,22.90
2018-03-07T04:09:48.189Z,25.30
2018-03-07T04:10:48.216Z,23.40
2018-03-07T04:11:48.246Z,22.50
2018-03-07T04:12:48.271Z,23.60
2018-03-07T04:13:48.297Z,22.60
2018-03-07T04:14:48.325Z,23.40
2018-03-07T04:15:48.351Z,22.50
2018-03-07T04:16:48.379Z,22.40
2018-03-07T04:17:48.406Z,21.00
2018-03-07T04:18:48.434Z,21.30
2018-03-07T04:19:48.460Z,24.10
2018-03-07T04:20:48.488Z,23.40
2018-03-07T04:21:48.514Z,20.20
2018-03-07T04:22:48.542Z,17.70
2018-03-07T04:23:48.569Z,25.30
2018-03-07T04:24:48.601Z,21.20
2018-03-07T04:25:48.624Z,20.20
2018-03-07T04:26:48.652Z,17.70
2018-03-07T04:27:48.678Z,19.20
2018-03-07T04:28:48.706Z,23.00
2018-03-07T04:29:48.734Z,23.10
2018-03-07T04:30:48.761Z,18.10
2018-03-07T04:31:48.788Z,18.60
2018-03-07T04:32:48.815Z,21.80
2018-03-07T04:33:48.844Z,17.70
2018-03-07T04:34:48.871Z,18.40
2018-03-07T04:35:48.898Z,14.50
2018-03-07T04:36:48.926Z,16.30
2018-03-07T04:37:48.952Z,15.50
2018-03-07T04:38:48.980Z,14.50
2018-03-07T04:39:49.007Z,12.00
2018-03-07T04:40:49.036Z,12.50
2018-03-07T04:41:49.063Z,14.20
2018-03-07T04:42:49.090Z,11.40
2018-03-07T04:43:49.118Z,13.20
2018-03-07T04:44:49.146Z,15.90
2018-03-07T04:45:49.174Z,14.20
2018-03-07T04:46:49.202Z,14.70
2018-03-07T04:47:49.229Z,15.90
2018-03-07T04:48:49.257Z,18.80
2018-03-07T04:49:49.287Z,18.30
2018-03-07T04:50:49.313Z,19.60
2018-03-07T04:51:49.342Z,17.10
2018-03-07T04:52:49.372Z,15.40
2018-03-07T04:53:49.395Z,14.00
2018-03-07T04:54:49.424Z,15.60
2018-03-07T04:55:49.450Z,15.70
2018-03-07T04:56:49.479Z,17.50
2018-03-07T04:57:49.508Z,13.30
2018-03-07T04:58:49.534Z,19.90
2018-03-07T04:59:49.564Z,18.60
2018-03-07T05:00:49.589Z,13.50
2018-03-07T05:01:49.617Z,14.70
2018-03-07T05:02:49.689Z,16.10
2018-03-07T05:03:49.673Z,16.20
2018-03-07T05:04:49.700Z,13.10
2018-03-07T05:05:49.728Z,11.20
2018-03-07T05:06:49.759Z,12.20
2018-03-07T05:07:49.785Z,11.70
2018-03-07T05:08:49.811Z,12.90
2018-03-07T05:09:49.840Z,12.70
2018-03-07T05:10:49.868Z,12.50
2018-03-07T05:11:49.894Z,11.00
2018-03-07T05:12:49.924Z,12.30
2018-03-07T05:13:49.955Z,9.30
2018-03-07T05:14:49.980Z,9.50
2018-03-07T05:15:50.006Z,9.30
2018-03-07T05:16:50.034Z,9.00
2018-03-07T05:17:50.063Z,11.00
2018-03-07T05:18:50.091Z,9.20
2018-03-07T05:19:50.118Z,10.50
2018-03-07T05:20:50.189Z,9.90
2018-03-07T05:21:50.174Z,9.60
2018-03-07T05:22:50.201Z,10.70
2018-03-07T05:23:50.231Z,10.40
2018-03-07T05:24:50.260Z,10.40
2018-03-07T05:25:50.284Z,9.60
2018-03-07T05:26:50.314Z,9.70
2018-03-07T05:27:50.342Z,10.40
2018-03-07T05:28:50.369Z,12.90
2018-03-07T05:29:50.401Z,8.50
2018-03-07T05:30:50.428Z,7.90
2018-03-07T05:31:50.456Z,8.60
2018-03-07T05:32:50.483Z,7.80
2018-03-07T05:33:50.510Z,6.30
2018-03-07T05:34:50.539Z,6.80
2018-03-07T05:35:50.567Z,6.40
2018-03-07T05:36:50.594Z,6.50
2018-03-07T05:37:50.623Z,5.40
2018-03-07T05:38:50.651Z,6.30
2018-03-07T05:39:50.679Z,5.20
2018-03-07T05:40:50.707Z,4.70
2018-03-07T05:41:50.735Z,4.00
2018-03-07T05:42:50.768Z,4.30
2018-03-07T05:43:50.792Z,5.60
2018-03-07T05:44:50.820Z,4.90
2018-03-07T05:45:50.855Z,5.30
2018-03-07T05:46:50.878Z,5.30
2018-03-07T05:47:50.905Z,5.50
2018-03-07T05:48:50.933Z,4.30
2018-03-07T05:49:50.962Z,4.00
2018-03-07T05:50:50.989Z,4.30
2018-03-07T05:51:51.017Z,4.70
2018-03-07T05:52:51.046Z,4.80
2018-03-07T05:53:51.075Z,4.30
2018-03-07T05:54:51.103Z,4.60
2018-03-07T05:55:51.130Z,5.20
2018-03-07T05:56:51.158Z,4.50
2018-03-07T05:57:51.187Z,4.20
2018-03-07T05:58:51.217Z,4.00
2018-03-07T05:59:51.244Z,4.90
2018-03-07T06:00:51.272Z,4.20
2018-03-07T06:01:51.300Z,4.80
2018-03-07T06:02:51.330Z,4.00
2018-03-07T06:03:51.356Z,4.00
2018-03-07T06:04:51.388Z,4.30
2018-03-07T06:05:51.413Z,4.00
2018-03-07T06:06:51.443Z,5.00
2018-03-07T06:07:51.469Z,4.30
2018-03-07T06:08:51.497Z,3.20
2018-03-07T06:09:51.526Z,3.50
2018-03-07T06:10:51.555Z,3.80
2018-03-07T06:11:51.581Z,3.30
2018-03-07T06:12:51.612Z,2.50
2018-03-07T06:13:51.640Z,2.40
2018-03-07T06:14:51.668Z,2.40
2018-03-07T06:15:51.695Z,2.00
2018-03-07T06:16:51.724Z,2.10
2018-03-07T06:17:51.752Z,2.50
2018-03-07T06:18:51.780Z,3.00
2018-03-07T06:19:51.808Z,2.40
2018-03-07T06:20:51.836Z,2.60
2018-03-07T06:21:51.866Z,3.40
2018-03-07T06:22:51.895Z,3.30
2018-03-07T06:23:51.922Z,3.00
2018-03-07T06:24:51.950Z,2.70
2018-03-07T06:25:51.979Z,2.60
2018-03-07T06:26:52.011Z,2.10
2018-03-07T06:27:52.035Z,2.00
2018-03-07T06:28:52.065Z,1.60
2018-03-07T06:29:52.093Z,4.00
2018-03-07T06:30:52.121Z,1.40
2018-03-07T06:31:52.150Z,1.30
2018-03-07T06:32:52.177Z,2.10
2018-03-07T06:33:52.206Z,2.90
2018-03-07T06:34:52.235Z,1.30
2018-03-07T06:35:52.262Z,1.40
2018-03-07T06:36:52.289Z,2.90
2018-03-07T06:37:52.320Z,1.70
2018-03-07T06:38:52.349Z,1.60
2018-03-07T06:39:52.376Z,1.30
2018-03-07T06:40:52.405Z,1.70
2018-03-07T06:41:52.435Z,1.80
2018-03-07T06:42:52.462Z,2.10
2018-03-07T06:43:52.490Z,2.90
2018-03-07T06:44:52.523Z,1.80
2018-03-07T06:45:52.548Z,1.50
2018-03-07T06:46:52.577Z,2.70
2018-03-07T06:47:52.603Z,5.10
2018-03-07T06:48:52.634Z,2.50
2018-03-07T06:49:52.663Z,2.10
2018-03-07T06:50:52.691Z,1.70
2018-03-07T06:51:52.721Z,1.50
2018-03-07T06:52:52.748Z,1.80
2018-03-07T06:53:52.778Z,1.60
2018-03-07T06:54:52.806Z,1.50
2018-03-07T06:55:52.835Z,2.40
2018-03-07T06:56:52.863Z,28.60
2018-03-07T06:57:52.893Z,3.30
2018-03-07T06:58:52.925Z,1.60
2018-03-07T06:59:52.953Z,3.10
2018-03-07T07:00:52.979Z,2.00
2018-03-07T07:01:53.009Z,2.20
2018-03-07T07:02:53.037Z,6.10
2018-03-07T07:03:53.064Z,3.30
2018-03-07T07:04:53.124Z,3.40
2018-03-07T07:05:53.122Z,1.90
2018-03-07T07:06:53.150Z,2.10
2018-03-07T07:07:53.184Z,2.60
2018-03-07T07:08:53.208Z,2.30
2018-03-07T07:09:53.238Z,1.50
2018-03-07T07:10:53.275Z,1.60
2018-03-07T07:11:53.296Z,3.60
2018-03-07T07:12:53.324Z,1.90
2018-03-07T07:13:53.353Z,2.70
2018-03-07T07:14:53.382Z,2.10
2018-03-07T07:15:53.412Z,5.10
2018-03-07T07:16:53.499Z,2.50
2018-03-07T07:17:53.469Z,3.20
2018-03-07T07:18:53.498Z,1.70
2018-03-07T07:19:53.526Z,1.60
2018-03-07T07:20:53.556Z,2.70
2018-03-07T07:21:53.585Z,2.50
2018-03-07T07:22:53.616Z,2.80
2018-03-07T07:23:53.643Z,1.80
2018-03-07T07:24:53.672Z,1.80
2018-03-07T07:25:53.702Z,4.80
2018-03-07T07:26:53.731Z,2.40
2018-03-07T07:27:53.760Z,2.00
2018-03-07T07:28:53.789Z,1.90
2018-03-07T07:29:53.818Z,3.20
2018-03-07T07:30:53.847Z,1.60
2018-03-07T07:31:53.875Z,1.90
2018-03-07T07:32:53.906Z,3.10
2018-03-07T07:33:53.935Z,2.00
2018-03-07T07:34:53.967Z,2.40
2018-03-07T07:35:53.993Z,5.20
2018-03-07T07:36:54.023Z,2.60
2018-03-07T07:37:54.054Z,2.80
2018-03-07T07:38:54.082Z,4.00
2018-03-07T07:39:54.111Z,1.50
2018-03-07T07:40:54.141Z,2.00
2018-03-07T07:41:54.169Z,1.50
2018-03-07T07:42:54.200Z,1.50
2018-03-07T07:43:54.229Z,4.20
2018-03-07T07:44:54.258Z,1.60
2018-03-07T07:45:54.288Z,1.70
2018-03-07T07:46:54.316Z,1.50
2018-03-07T07:47:54.351Z,2.00
2018-03-07T07:48:54.375Z,1.60
2018-03-07T07:49:54.406Z,1.80
2018-03-07T07:50:54.436Z,1.90
2018-03-07T07:51:54.465Z,2.50
2018-03-07T07:52:54.494Z,1.50
2018-03-07T07:53:54.524Z,2.30
2018-03-07T07:54:54.554Z,1.80
2018-03-07T07:55:54.583Z,2.60
2018-03-07T07:56:54.611Z,1.70
2018-03-07T07:57:54.646Z,2.20
2018-03-07T07:58:54.673Z,2.00
2018-03-07T07:59:54.700Z,2.40
2018-03-07T08:00:54.731Z,1.70
2018-03-07T08:01:54.762Z,2.60
2018-03-07T08:02:54.791Z,2.90
2018-03-07T08:03:54.829Z,2.40
2018-03-07T08:04:54.850Z,2.40
2018-03-07T08:05:54.930Z,2.50
2018-03-07T08:06:54.909Z,2.50
2018-03-07T08:07:54.939Z,3.40
2018-03-07T08:08:54.970Z,4.40
2018-03-07T08:09:55.001Z,4.20
2018-03-07T08:10:55.030Z,2.30
2018-03-07T08:11:55.059Z,2.60
2018-03-07T08:12:55.090Z,3.90
2018-03-07T08:13:55.120Z,2.40
2018-03-07T08:14:55.150Z,3.30
2018-03-07T08:15:55.179Z,4.30
2018-03-07T08:16:55.208Z,2.50
2018-03-07T08:17:55.240Z,4.20
2018-03-07T08:18:55.270Z,3.50
2018-03-07T08:19:55.301Z,2.20
2018-03-07T08:20:55.329Z,2.10
2018-03-07T08:21:55.361Z,3.40
2018-03-07T08:22:55.392Z,3.60
2018-03-07T08:23:55.421Z,2.80
2018-03-07T08:24:55.454Z,2.30
2018-03-07T08:25:55.485Z,2.10
2018-03-07T08:26:55.516Z,2.70
2018-03-07T08:27:55.545Z,3.10
2018-03-07T08:28:55.578Z,2.40
2018-03-07T08:29:55.608Z,1.90
2018-03-07T08:30:55.642Z,2.10
2018-03-07T08:31:55.671Z,1.70
2018-03-07T08:32:55.703Z,3.80
2018-03-07T08:33:55.736Z,3.60
2018-03-07T08:34:55.767Z,2.70
2018-03-07T08:35:55.797Z,3.40
2018-03-07T08:36:55.830Z,4.40
2018-03-07T08:37:55.860Z,3.90
2018-03-07T08:38:55.894Z,3.50
2018-03-07T08:39:55.927Z,2.70
2018-03-07T08:40:55.959Z,4.00
2018-03-07T08:41:55.992Z,3.60
2018-03-07T08:42:56.025Z,1.60
2018-03-07T08:43:56.058Z,1.90
2018-03-07T08:44:56.092Z,2.70
2018-03-07T08:45:56.126Z,1.60
2018-03-07T08:46:56.160Z,3.80
2018-03-07T08:47:56.194Z,2.30
2018-03-07T08:48:56.228Z,2.30
2018-03-07T08:49:56.264Z,2.20
2018-03-07T08:50:56.299Z,1.60
2018-03-07T08:51:56.334Z,5.30
2018-03-07T08:52:56.368Z,2.50
2018-03-07T08:53:56.405Z,2.30
2018-03-07T08:54:56.441Z,1.30
2018-03-07T08:55:56.477Z,3.40
2018-03-07T08:56:56.512Z,2.20
2018-03-07T08:57:56.550Z,2.20
2018-03-07T08:58:56.586Z,2.70
2018-03-07T08:59:56.622Z,2.10
2018-03-07T09:00:56.659Z,1.50
2018-03-07T09:01:56.696Z,2.70
2018-03-07T09:02:56.732Z,1.60
2018-03-07T09:03:56.767Z,2.00
2018-03-07T09:04:56.806Z,2.10
2018-03-07T09:05:56.843Z,3.20
2018-03-07T09:06:56.879Z,1.50
2018-03-07T09:07:56.913Z,1.90
2018-03-07T09:08:56.952Z,2.40
2018-03-07T09:09:56.994Z,3.20
2018-03-07T09:10:57.025Z,3.00
2018-03-07T09:11:57.060Z,2.40
2018-03-07T09:12:57.095Z,2.30
2018-03-07T09:13:57.134Z,4.80
2018-03-07T09:14:57.168Z,2.00
2018-03-07T09:15:57.205Z,3.40
2018-03-07T09:16:57.239Z,4.60
2018-03-07T09:17:57.274Z,2.60
2018-03-07T09:18:57.310Z,2.00
2018-03-07T09:19:57.343Z,2.90
2018-03-07T09:20:57.379Z,2.40
2018-03-07T09:21:57.415Z,2.00
2018-03-07T09:22:57.450Z,2.00
2018-03-07T09:23:57.486Z,1.90
2018-03-07T09:24:57.520Z,3.50
2018-03-07T09:25:57.555Z,2.40
2018-03-07T09:26:57.590Z,2.70
2018-03-07T09:27:57.623Z,6.60
2018-03-07T09:28:57.713Z,3.40
2018-03-07T09:29:57.692Z,2.90
2018-03-07T09:30:57.727Z,6.30
2018-03-07T09:31:57.762Z,3.20
2018-03-07T09:32:57.797Z,1.60
2018-03-07T09:33:57.836Z,3.10
2018-03-07T09:34:57.887Z,4.60
2018-03-07T09:35:57.899Z,3.00
2018-03-07T09:36:57.934Z,3.10
2018-03-07T09:37:57.968Z,5.00
2018-03-07T09:38:58.002Z,2.90
2018-03-07T09:39:58.037Z,2.40
2018-03-07T09:40:58.070Z,2.10
2018-03-07T09:41:58.105Z,3.10
2018-03-07T09:42:58.140Z,3.00
2018-03-07T09:43:58.173Z,2.40
2018-03-07T09:44:58.209Z,2.30
2018-03-07T09:45:58.242Z,4.40
2018-03-07T09:46:58.279Z,2.30
2018-03-07T09:47:58.311Z,2.90
2018-03-07T09:48:58.345Z,3.20
2018-03-07T09:49:58.381Z,2.40
2018-03-07T09:50:58.412Z,3.20
2018-03-07T09:51:58.448Z,3.90
2018-03-07T09:52:58.482Z,4.90
2018-03-07T09:53:58.516Z,3.20
2018-03-07T09:54:58.551Z,2.70
2018-03-07T09:55:58.584Z,6.30
2018-03-07T09:56:58.617Z,2.40
2018-03-07T09:57:58.650Z,2.30
2018-03-07T09:58:58.685Z,3.30
2018-03-07T09:59:58.716Z,5.20
2018-03-07T10:00:58.750Z,2.50
2018-03-07T10:01:58.857Z,2.20
2018-03-07T10:02:58.816Z,2.40
2018-03-07T10:03:58.849Z,2.30
2018-03-07T10:04:58.883Z,3.40
2018-03-07T10:05:58.916Z,1.60
2018-03-07T10:06:58.958Z,2.60
2018-03-07T10:07:59.006Z,4.90
2018-03-07T10:08:59.014Z,6.70
2018-03-07T10:09:59.048Z,3.70
2018-03-07T10:10:59.082Z,3.50
2018-03-07T10:11:59.113Z,1.80
2018-03-07T10:12:59.146Z,2.20
2018-03-07T10:13:59.181Z,2.00
2018-03-07T10:14:59.211Z,4.40
2018-03-07T10:15:59.246Z,1.70
2018-03-07T10:16:59.278Z,2.30
2018-03-07T10:17:59.311Z,2.40
2018-03-07T10:18:59.344Z,2.10
2018-03-07T10:19:59.378Z,1.70
2018-03-07T10:20:59.409Z,2.10
2018-03-07T10:21:59.441Z,2.40
2018-03-07T10:22:59.539Z,1.70
2018-03-07T10:23:59.507Z,3.10
2018-03-07T10:24:59.538Z,2.70
2018-03-07T10:25:59.574Z,2.50
2018-03-07T10:26:59.605Z,2.60
2018-03-07T10:27:59.642Z,4.20
2018-03-07T10:28:59.669Z,2.00
2018-03-07T10:29:59.702Z,2.00
2018-03-07T10:30:59.734Z,3.10
2018-03-07T10:31:59.766Z,2.00
2018-03-07T10:32:59.809Z,2.60
2018-03-07T10:33:59.831Z,1.90
2018-03-07T10:34:59.862Z,1.60
2018-03-07T10:35:59.898Z,4.60
2018-03-07T10:36:59.926Z,4.80
2018-03-07T10:37:59.960Z,3.20
2018-03-07T10:38:59.992Z,5.70
2018-03-07T10:40:00.025Z,3.10
2018-03-07T10:41:00.056Z,3.50
2018-03-07T10:42:00.090Z,5.50
2018-03-07T10:43:00.120Z,1.50
2018-03-07T10:44:00.153Z,2.00
2018-03-07T10:45:00.184Z,2.10
2018-03-07T10:46:00.217Z,2.50
2018-03-07T10:47:00.248Z,1.10
2018-03-07T10:48:00.283Z,3.60
2018-03-07T10:49:00.313Z,2.40
2018-03-07T10:50:00.346Z,2.50
2018-03-07T10:51:00.377Z,4.70
2018-03-07T10:52:00.410Z,2.00
2018-03-07T10:53:00.442Z,3.80
2018-03-07T10:54:00.473Z,2.40
2018-03-07T10:55:00.507Z,2.10
2018-03-07T10:56:00.537Z,3.10
2018-03-07T10:57:00.573Z,2.90
2018-03-07T10:58:00.601Z,3.30
2018-03-07T10:59:00.635Z,2.70
2018-03-07T11:00:00.664Z,3.40
2018-03-07T11:01:00.697Z,2.20
2018-03-07T11:02:00.729Z,1.90
2018-03-07T11:03:00.765Z,3.30
2018-03-07T11:04:00.792Z,1.70
2018-03-07T11:05:00.824Z,3.60
2018-03-07T11:06:00.857Z,3.80
2018-03-07T11:07:00.891Z,2.10
2018-03-07T11:08:00.921Z,2.40
2018-03-07T11:09:00.955Z,2.70
2018-03-07T11:10:00.986Z,1.80
2018-03-07T11:11:01.019Z,1.90
2018-03-07T11:12:01.051Z,2.10
2018-03-07T11:13:01.084Z,3.60
2018-03-07T11:14:01.117Z,2.00
2018-03-07T11:15:01.156Z,2.60
2018-03-07T11:16:01.181Z,2.40
2018-03-07T11:17:01.214Z,2.60
2018-03-07T11:18:01.246Z,1.70
2018-03-07T11:19:01.284Z,3.50
2018-03-07T11:20:01.312Z,1.90
2018-03-07T11:21:01.345Z,2.80
2018-03-07T11:22:01.378Z,2.40
2018-03-07T11:23:01.410Z,5.10
2018-03-07T11:24:01.444Z,4.50
2018-03-07T11:25:01.479Z,3.00
2018-03-07T11:26:01.511Z,5.90
2018-03-07T11:27:01.545Z,5.10
2018-03-07T11:28:01.578Z,4.30
2018-03-07T11:29:01.613Z,2.20
2018-03-07T11:30:01.644Z,2.50
2018-03-07T11:31:01.679Z,2.70
2018-03-07T11:32:01.728Z,2.80
2018-03-07T11:33:01.745Z,2.40
2018-03-07T11:34:01.778Z,1.50
2018-03-07T11:35:01.813Z,2.90
2018-03-07T11:36:01.844Z,4.10
2018-03-07T11:37:01.878Z,3.60
2018-03-07T11:38:01.915Z,3.50
2018-03-07T11:39:01.948Z,1.90
2018-03-07T11:40:01.980Z,2.20
2018-03-07T11:41:02.013Z,1.90
2018-03-07T11:42:02.047Z,1.90
2018-03-07T11:43:02.081Z,4.10
2018-03-07T11:44:02.112Z,2.70
2018-03-07T11:45:02.159Z,1.50
2018-03-07T11:46:02.179Z,3.30
2018-03-07T11:47:02.213Z,2.40
2018-03-07T11:48:02.247Z,1.60
2018-03-07T11:49:02.281Z,3.30
2018-03-07T11:50:02.345Z,2.60
2018-03-07T11:51:02.348Z,2.50
2018-03-07T11:52:02.379Z,2.00
2018-03-07T11:53:02.413Z,4.10
2018-03-07T11:54:02.449Z,5.10
2018-03-07T11:55:02.479Z,4.40
2018-03-07T11:56:02.532Z,90.70
2018-03-07T11:57:02.545Z,57.90
2018-03-07T11:58:02.578Z,58.60
2018-03-07T11:59:02.613Z,19.80
2018-03-07T12:00:02.646Z,3.20
2018-03-07T12:01:02.681Z,7.60
2018-03-07T12:02:02.711Z,14.00
2018-03-07T12:03:02.745Z,3.80
2018-03-07T12:04:02.779Z,1.20
2018-03-07T12:05:02.812Z,1.70
2018-03-07T12:06:02.843Z,2.90
2018-03-07T12:07:02.884Z,2.10
2018-03-07T12:08:02.912Z,3.70
2018-03-07T12:09:02.945Z,3.30
2018-03-07T12:10:02.980Z,1.50
2018-03-07T12:11:03.011Z,3.00
2018-03-07T12:12:03.045Z,4.90
2018-03-07T12:13:03.079Z,1.30
2018-03-07T12:14:03.111Z,2.60
2018-03-07T12:15:03.146Z,2.80
2018-03-07T12:16:03.177Z,1.80
2018-03-07T12:17:03.211Z,3.80
2018-03-07T12:18:03.244Z,1.50
2018-03-07T12:19:03.276Z,1.50
2018-03-07T12:20:03.309Z,3.10
2018-03-07T12:21:03.343Z,2.90
2018-03-07T12:22:03.377Z,2.60
2018-03-07T12:23:03.410Z,3.40
2018-03-07T12:24:03.443Z,1.90
2018-03-07T12:25:03.475Z,2.20
2018-03-07T12:26:03.508Z,2.30
2018-03-07T12:27:03.545Z,5.70
2018-03-07T12:28:03.574Z,2.80
2018-03-07T12:29:03.607Z,4.20
2018-03-07T12:30:03.640Z,1.60
2018-03-07T12:31:03.672Z,1.50
2018-03-07T12:32:03.704Z,2.00
2018-03-07T12:33:03.738Z,3.10
2018-03-07T12:34:03.772Z,1.80
2018-03-07T12:35:03.805Z,1.30
2018-03-07T12:36:03.839Z,1.30
2018-03-07T12:37:03.868Z,1.80
2018-03-07T12:38:03.901Z,3.50
2018-03-07T12:39:03.935Z,3.10
2018-03-07T12:40:03.966Z,1.40
2018-03-07T12:41:04.000Z,3.00
2018-03-07T12:42:04.033Z,2.70
2018-03-07T12:43:04.064Z,4.00
2018-03-07T12:44:04.097Z,4.70
2018-03-07T12:45:04.130Z,2.50
2018-03-07T12:46:04.161Z,8.70
2018-03-07T12:47:04.195Z,4.40
2018-03-07T12:48:04.229Z,6.10
2018-03-07T12:49:04.259Z,4.40
2018-03-07T12:50:04.299Z,2.10
2018-03-07T12:51:04.443Z,3.60
2018-03-07T12:52:04.379Z,3.40
2018-03-07T12:53:04.393Z,2.70
2018-03-07T12:54:04.424Z,3.20
2018-03-07T12:55:04.459Z,1.90
2018-03-07T12:56:04.492Z,2.00
2018-03-07T12:57:04.525Z,1.80
2018-03-07T12:58:04.558Z,2.70
2018-03-07T12:59:04.593Z,2.30
2018-03-07T13:00:04.624Z,2.00
2018-03-07T13:01:04.696Z,2.10
2018-03-07T13:02:04.693Z,2.60
2018-03-07T13:03:04.732Z,2.20
2018-03-07T13:04:04.766Z,6.30